sensor_id;sensor_type;location;lat;lon;timestamp;temperature;humidity
24860;DHT22;12936;52.006;4.350;2023-08-06T00:01:42;17.30;99.90
24860;DHT22;12936;52.006;4.350;2023-08-06T00:04:38;17.30;99.90
24860;DHT22;12936;52.006;4.350;2023-08-06T00:07:30;17.30;99.90
24860;DHT22;12936;52.006;4.350;2023-08-06T00:10:06;17.30;99.90
24860;DHT22;12936;52.006;4.350;2023-08-06T00:12:45;17.30;99.90
24860;DHT22;12936;52.006;4.350;2023-08-06T00:15:17;17.20;99.90
24860;DHT22;12936;52.006;4.350;2023-08-06T00:17:56;17.20;99.90
24860;DHT22;12936;52.006;4.350;2023-08-06T00:20:25;17.20;99.90
24860;DHT22;12936;52.006;4.350;2023-08-06T00:22:54;17.20;99.90
24860;DHT22;12936;52.006;4.350;2023-08-06T00:25:26;17.30;99.90
24860;DHT22;12936;52.006;4.350;2023-08-06T00:28:01;17.20;99.90
24860;DHT22;12936;52.006;4.350;2023-08-06T00:30:33;17.20;99.90
24860;DHT22;12936;52.006;4.350;2023-08-06T00:33:01;17.30;99.90
24860;DHT22;12936;52.006;4.350;2023-08-06T00:35:34;17.20;99.90
24860;DHT22;12936;52.006;4.350;2023-08-06T00:38:03;17.20;99.90
24860;DHT22;12936;52.006;4.350;2023-08-06T00:40:32;17.20;99.90
24860;DHT22;12936;52.006;4.350;2023-08-06T00:43:07;17.20;99.90
24860;DHT22;12936;52.006;4.350;2023-08-06T00:45:43;17.20;99.90
24860;DHT22;12936;52.006;4.350;2023-08-06T00:48:13;17.20;99.90
24860;DHT22;12936;52.006;4.350;2023-08-06T00:50:44;17.20;99.90
24860;DHT22;12936;52.006;4.350;2023-08-06T00:53:22;17.20;99.90
24860;DHT22;12936;52.006;4.350;2023-08-06T00:55:52;17.20;99.90
24860;DHT22;12936;52.006;4.350;2023-08-06T00:58:28;17.30;99.90
24860;DHT22;12936;52.006;4.350;2023-08-06T01:01:21;17.30;99.90
24860;DHT22;12936;52.006;4.350;2023-08-06T01:03:51;17.20;99.90
24860;DHT22;12936;52.006;4.350;2023-08-06T01:06:35;17.20;99.90
24860;DHT22;12936;52.006;4.350;2023-08-06T01:09:21;17.20;99.90
24860;DHT22;12936;52.006;4.350;2023-08-06T01:12:24;17.20;99.90
24860;DHT22;12936;52.006;4.350;2023-08-06T01:15:19;17.20;99.90
24860;DHT22;12936;52.006;4.350;2023-08-06T01:17:58;17.20;99.90
24860;DHT22;12936;52.006;4.350;2023-08-06T01:20:31;17.20;99.90
24860;DHT22;12936;52.006;4.350;2023-08-06T01:23:02;17.20;99.90
24860;DHT22;12936;52.006;4.350;2023-08-06T01:25:35;17.30;99.90
24860;DHT22;12936;52.006;4.350;2023-08-06T01:28:10;17.20;99.90
24860;DHT22;12936;52.006;4.350;2023-08-06T01:30:41;17.20;99.90
24860;DHT22;12936;52.006;4.350;2023-08-06T01:33:16;17.20;99.90
24860;DHT22;12936;52.006;4.350;2023-08-06T01:35:50;17.20;99.90
24860;DHT22;12936;52.006;4.350;2023-08-06T01:38:32;17.20;99.90
24860;DHT22;12936;52.006;4.350;2023-08-06T01:41:01;17.20;99.90
24860;DHT22;12936;52.006;4.350;2023-08-06T01:43:30;17.20;99.90
24860;DHT22;12936;52.006;4.350;2023-08-06T01:46:03;17.20;99.90
24860;DHT22;12936;52.006;4.350;2023-08-06T01:48:32;17.20;99.90
24860;DHT22;12936;52.006;4.350;2023-08-06T01:51:06;17.20;99.90
24860;DHT22;12936;52.006;4.350;2023-08-06T01:53:36;17.20;99.90
24860;DHT22;12936;52.006;4.350;2023-08-06T01:56:05;17.20;99.90
24860;DHT22;12936;52.006;4.350;2023-08-06T01:58:34;17.20;99.90
24860;DHT22;12936;52.006;4.350;2023-08-06T02:01:04;17.20;99.90
24860;DHT22;12936;52.006;4.350;2023-08-06T02:03:39;17.20;99.90
24860;DHT22;12936;52.006;4.350;2023-08-06T02:06:15;17.20;99.90
24860;DHT22;12936;52.006;4.350;2023-08-06T02:08:45;17.20;99.90
24860;DHT22;12936;52.006;4.350;2023-08-06T02:11:14;17.20;99.90
24860;DHT22;12936;52.006;4.350;2023-08-06T02:13:43;17.20;99.90
24860;DHT22;12936;52.006;4.350;2023-08-06T02:16:11;17.20;99.90
24860;DHT22;12936;52.006;4.350;2023-08-06T02:18:40;17.20;99.90
24860;DHT22;12936;52.006;4.350;2023-08-06T02:21:10;17.10;99.90
24860;DHT22;12936;52.006;4.350;2023-08-06T02:23:45;17.20;99.90
24860;DHT22;12936;52.006;4.350;2023-08-06T02:26:14;17.20;99.90
24860;DHT22;12936;52.006;4.350;2023-08-06T02:28:43;17.10;99.90
24860;DHT22;12936;52.006;4.350;2023-08-06T02:31:12;17.10;99.90
24860;DHT22;12936;52.006;4.350;2023-08-06T02:33:41;17.10;99.90
24860;DHT22;12936;52.006;4.350;2023-08-06T02:36:10;17.10;99.90
24860;DHT22;12936;52.006;4.350;2023-08-06T02:38:43;17.00;99.90
24860;DHT22;12936;52.006;4.350;2023-08-06T02:41:12;17.00;99.90
24860;DHT22;12936;52.006;4.350;2023-08-06T02:43:41;16.90;99.90
24860;DHT22;12936;52.006;4.350;2023-08-06T02:46:11;16.90;99.90
24860;DHT22;12936;52.006;4.350;2023-08-06T02:48:42;16.90;99.90
24860;DHT22;12936;52.006;4.350;2023-08-06T02:51:14;16.90;99.90
24860;DHT22;12936;52.006;4.350;2023-08-06T02:53:47;16.80;99.90
24860;DHT22;12936;52.006;4.350;2023-08-06T02:56:20;16.80;99.90
24860;DHT22;12936;52.006;4.350;2023-08-06T02:58:49;16.80;99.90
24860;DHT22;12936;52.006;4.350;2023-08-06T03:01:18;16.80;99.90
24860;DHT22;12936;52.006;4.350;2023-08-06T03:03:47;16.80;99.90
24860;DHT22;12936;52.006;4.350;2023-08-06T03:06:17;16.70;99.90
24860;DHT22;12936;52.006;4.350;2023-08-06T03:08:50;16.70;99.90
24860;DHT22;12936;52.006;4.350;2023-08-06T03:11:19;16.80;99.90
24860;DHT22;12936;52.006;4.350;2023-08-06T03:13:49;16.70;99.90
24860;DHT22;12936;52.006;4.350;2023-08-06T03:16:21;16.70;99.90
24860;DHT22;12936;52.006;4.350;2023-08-06T03:19:09;16.70;99.90
24860;DHT22;12936;52.006;4.350;2023-08-06T03:21:40;16.70;99.90
24860;DHT22;12936;52.006;4.350;2023-08-06T03:24:11;16.70;99.90
24860;DHT22;12936;52.006;4.350;2023-08-06T03:27:01;16.70;99.90
24860;DHT22;12936;52.006;4.350;2023-08-06T03:29:30;16.60;99.90
24860;DHT22;12936;52.006;4.350;2023-08-06T03:32:01;16.60;99.90
24860;DHT22;12936;52.006;4.350;2023-08-06T03:34:35;16.60;99.90
24860;DHT22;12936;52.006;4.350;2023-08-06T03:37:05;16.50;99.90
24860;DHT22;12936;52.006;4.350;2023-08-06T03:39:41;16.50;99.90
24860;DHT22;12936;52.006;4.350;2023-08-06T03:42:11;16.40;99.90
24860;DHT22;12936;52.006;4.350;2023-08-06T03:44:39;16.40;99.90
24860;DHT22;12936;52.006;4.350;2023-08-06T03:47:08;16.40;99.90
24860;DHT22;12936;52.006;4.350;2023-08-06T03:49:38;16.30;99.90
24860;DHT22;12936;52.006;4.350;2023-08-06T03:52:07;16.30;99.90
24860;DHT22;12936;52.006;4.350;2023-08-06T03:54:37;16.30;99.90
24860;DHT22;12936;52.006;4.350;2023-08-06T03:57:06;16.30;99.90
24860;DHT22;12936;52.006;4.350;2023-08-06T03:59:34;16.20;99.90
24860;DHT22;12936;52.006;4.350;2023-08-06T04:02:03;16.20;99.90
24860;DHT22;12936;52.006;4.350;2023-08-06T04:04:33;16.10;99.90
24860;DHT22;12936;52.006;4.350;2023-08-06T04:07:06;16.10;99.90
24860;DHT22;12936;52.006;4.350;2023-08-06T04:09:54;16.10;99.90
24860;DHT22;12936;52.006;4.350;2023-08-06T04:12:24;16.00;99.90
24860;DHT22;12936;52.006;4.350;2023-08-06T04:14:54;16.00;99.90
24860;DHT22;12936;52.006;4.350;2023-08-06T04:17:25;16.00;99.90
24860;DHT22;12936;52.006;4.350;2023-08-06T04:20:00;16.00;99.90
24860;DHT22;12936;52.006;4.350;2023-08-06T04:22:30;16.00;99.90
24860;DHT22;12936;52.006;4.350;2023-08-06T04:25:06;16.00;99.90
24860;DHT22;12936;52.006;4.350;2023-08-06T04:27:36;16.00;99.90
24860;DHT22;12936;52.006;4.350;2023-08-06T04:30:28;16.00;99.90
24860;DHT22;12936;52.006;4.350;2023-08-06T04:32:58;16.10;99.90
24860;DHT22;12936;52.006;4.350;2023-08-06T04:35:26;16.00;99.90
24860;DHT22;12936;52.006;4.350;2023-08-06T04:37:57;16.00;99.90
24860;DHT22;12936;52.006;4.350;2023-08-06T04:40:28;16.00;99.90
24860;DHT22;12936;52.006;4.350;2023-08-06T04:42:57;16.00;99.90
24860;DHT22;12936;52.006;4.350;2023-08-06T04:45:25;16.10;99.90
24860;DHT22;12936;52.006;4.350;2023-08-06T04:47:53;16.10;99.90
24860;DHT22;12936;52.006;4.350;2023-08-06T04:50:24;16.10;99.90
24860;DHT22;12936;52.006;4.350;2023-08-06T04:52:53;16.00;99.90
24860;DHT22;12936;52.006;4.350;2023-08-06T04:55:23;16.00;99.90
24860;DHT22;12936;52.006;4.350;2023-08-06T04:57:53;16.10;99.90
24860;DHT22;12936;52.006;4.350;2023-08-06T05:00:22;16.00;99.90
24860;DHT22;12936;52.006;4.350;2023-08-06T05:02:51;16.10;99.90
24860;DHT22;12936;52.006;4.350;2023-08-06T05:05:22;16.00;99.90
24860;DHT22;12936;52.006;4.350;2023-08-06T05:07:55;16.10;99.90
24860;DHT22;12936;52.006;4.350;2023-08-06T05:10:24;16.10;99.90
24860;DHT22;12936;52.006;4.350;2023-08-06T05:12:56;16.10;99.90
24860;DHT22;12936;52.006;4.350;2023-08-06T05:15:25;16.10;99.90
24860;DHT22;12936;52.006;4.350;2023-08-06T05:17:53;16.10;99.90
24860;DHT22;12936;52.006;4.350;2023-08-06T05:20:22;16.10;99.90
24860;DHT22;12936;52.006;4.350;2023-08-06T05:22:51;16.00;99.90
24860;DHT22;12936;52.006;4.350;2023-08-06T05:25:20;16.10;99.90
24860;DHT22;12936;52.006;4.350;2023-08-06T05:27:49;16.00;99.90
24860;DHT22;12936;52.006;4.350;2023-08-06T05:30:20;16.00;99.90
24860;DHT22;12936;52.006;4.350;2023-08-06T05:32:48;16.00;99.90
24860;DHT22;12936;52.006;4.350;2023-08-06T05:35:16;16.00;99.90
24860;DHT22;12936;52.006;4.350;2023-08-06T05:37:45;16.00;99.90
24860;DHT22;12936;52.006;4.350;2023-08-06T05:40:15;15.90;99.90
24860;DHT22;12936;52.006;4.350;2023-08-06T05:42:43;15.90;99.90
24860;DHT22;12936;52.006;4.350;2023-08-06T05:45:12;15.90;99.90
24860;DHT22;12936;52.006;4.350;2023-08-06T05:47:42;15.90;99.90
24860;DHT22;12936;52.006;4.350;2023-08-06T05:50:11;15.90;99.90
24860;DHT22;12936;52.006;4.350;2023-08-06T05:52:41;15.90;99.90
24860;DHT22;12936;52.006;4.350;2023-08-06T05:55:09;15.90;99.90
24860;DHT22;12936;52.006;4.350;2023-08-06T05:57:40;15.90;99.90
24860;DHT22;12936;52.006;4.350;2023-08-06T06:00:16;15.90;99.90
24860;DHT22;12936;52.006;4.350;2023-08-06T06:02:47;15.90;99.90
24860;DHT22;12936;52.006;4.350;2023-08-06T06:05:18;15.90;99.90
24860;DHT22;12936;52.006;4.350;2023-08-06T06:07:46;15.90;99.90
24860;DHT22;12936;52.006;4.350;2023-08-06T06:10:18;15.90;99.90
24860;DHT22;12936;52.006;4.350;2023-08-06T06:12:46;15.80;99.90
24860;DHT22;12936;52.006;4.350;2023-08-06T06:15:15;15.80;99.90
24860;DHT22;12936;52.006;4.350;2023-08-06T06:17:43;15.80;99.90
24860;DHT22;12936;52.006;4.350;2023-08-06T06:20:13;15.80;99.90
24860;DHT22;12936;52.006;4.350;2023-08-06T06:22:41;15.80;99.90
24860;DHT22;12936;52.006;4.350;2023-08-06T06:25:10;15.80;99.90
24860;DHT22;12936;52.006;4.350;2023-08-06T06:27:38;15.80;99.90
24860;DHT22;12936;52.006;4.350;2023-08-06T06:30:08;15.80;99.90
24860;DHT22;12936;52.006;4.350;2023-08-06T06:32:38;15.80;99.90
24860;DHT22;12936;52.006;4.350;2023-08-06T06:35:08;15.80;99.90
24860;DHT22;12936;52.006;4.350;2023-08-06T06:37:38;15.80;99.90
24860;DHT22;12936;52.006;4.350;2023-08-06T06:40:07;15.80;99.90
24860;DHT22;12936;52.006;4.350;2023-08-06T06:42:35;15.80;99.90
24860;DHT22;12936;52.006;4.350;2023-08-06T06:45:04;15.70;99.90
24860;DHT22;12936;52.006;4.350;2023-08-06T06:47:32;15.70;99.90
24860;DHT22;12936;52.006;4.350;2023-08-06T06:50:01;15.70;99.90
24860;DHT22;12936;52.006;4.350;2023-08-06T06:52:29;15.70;99.90
24860;DHT22;12936;52.006;4.350;2023-08-06T06:54:59;15.70;99.90
24860;DHT22;12936;52.006;4.350;2023-08-06T06:57:27;15.70;99.90
24860;DHT22;12936;52.006;4.350;2023-08-06T06:59:55;15.80;99.90
24860;DHT22;12936;52.006;4.350;2023-08-06T07:02:23;15.80;99.90
24860;DHT22;12936;52.006;4.350;2023-08-06T07:04:51;15.70;99.90
24860;DHT22;12936;52.006;4.350;2023-08-06T07:07:20;15.80;99.90
24860;DHT22;12936;52.006;4.350;2023-08-06T07:09:48;15.80;99.90
24860;DHT22;12936;52.006;4.350;2023-08-06T07:12:18;15.80;99.90
24860;DHT22;12936;52.006;4.350;2023-08-06T07:14:48;15.80;99.90
24860;DHT22;12936;52.006;4.350;2023-08-06T07:17:16;15.80;99.90
24860;DHT22;12936;52.006;4.350;2023-08-06T07:19:44;15.80;99.90
24860;DHT22;12936;52.006;4.350;2023-08-06T07:22:12;15.80;99.90
24860;DHT22;12936;52.006;4.350;2023-08-06T07:24:40;15.80;99.90
24860;DHT22;12936;52.006;4.350;2023-08-06T07:27:10;15.80;99.90
24860;DHT22;12936;52.006;4.350;2023-08-06T07:29:40;15.80;99.90
24860;DHT22;12936;52.006;4.350;2023-08-06T07:32:08;15.80;99.90
24860;DHT22;12936;52.006;4.350;2023-08-06T07:34:36;15.80;99.90
24860;DHT22;12936;52.006;4.350;2023-08-06T07:37:05;15.80;99.90
24860;DHT22;12936;52.006;4.350;2023-08-06T07:39:33;15.80;99.90
24860;DHT22;12936;52.006;4.350;2023-08-06T07:42:01;15.80;99.90
24860;DHT22;12936;52.006;4.350;2023-08-06T07:44:31;15.90;99.90
24860;DHT22;12936;52.006;4.350;2023-08-06T07:47:01;15.90;99.90
24860;DHT22;12936;52.006;4.350;2023-08-06T07:49:29;15.80;99.90
24860;DHT22;12936;52.006;4.350;2023-08-06T07:51:58;15.90;99.90
24860;DHT22;12936;52.006;4.350;2023-08-06T07:54:26;15.90;99.90
24860;DHT22;12936;52.006;4.350;2023-08-06T07:56:55;15.90;99.90
24860;DHT22;12936;52.006;4.350;2023-08-06T07:59:23;15.90;99.90
24860;DHT22;12936;52.006;4.350;2023-08-06T08:01:51;16.00;99.90
24860;DHT22;12936;52.006;4.350;2023-08-06T08:04:21;16.00;99.90
24860;DHT22;12936;52.006;4.350;2023-08-06T08:06:50;16.00;99.90
24860;DHT22;12936;52.006;4.350;2023-08-06T08:09:18;16.00;99.90
24860;DHT22;12936;52.006;4.350;2023-08-06T08:11:46;16.00;99.90
24860;DHT22;12936;52.006;4.350;2023-08-06T08:14:15;16.00;99.90
24860;DHT22;12936;52.006;4.350;2023-08-06T08:16:43;16.00;99.90
24860;DHT22;12936;52.006;4.350;2023-08-06T08:19:11;16.00;99.90
24860;DHT22;12936;52.006;4.350;2023-08-06T08:21:40;16.00;99.90
24860;DHT22;12936;52.006;4.350;2023-08-06T08:24:09;16.00;99.90
24860;DHT22;12936;52.006;4.350;2023-08-06T08:26:37;16.00;99.90
24860;DHT22;12936;52.006;4.350;2023-08-06T08:29:05;16.00;99.90
24860;DHT22;12936;52.006;4.350;2023-08-06T08:31:34;16.00;99.90
24860;DHT22;12936;52.006;4.350;2023-08-06T08:34:08;16.00;99.90
24860;DHT22;12936;52.006;4.350;2023-08-06T08:36:39;16.00;99.90
24860;DHT22;12936;52.006;4.350;2023-08-06T08:39:07;16.00;99.90
24860;DHT22;12936;52.006;4.350;2023-08-06T08:41:37;16.00;99.90
24860;DHT22;12936;52.006;4.350;2023-08-06T08:44:08;16.00;99.90
24860;DHT22;12936;52.006;4.350;2023-08-06T08:46:40;16.00;99.90
24860;DHT22;12936;52.006;4.350;2023-08-06T08:49:08;16.00;99.90
24860;DHT22;12936;52.006;4.350;2023-08-06T08:51:37;16.10;99.90
24860;DHT22;12936;52.006;4.350;2023-08-06T08:54:07;16.10;99.90
24860;DHT22;12936;52.006;4.350;2023-08-06T08:56:36;16.10;99.90
24860;DHT22;12936;52.006;4.350;2023-08-06T08:59:04;16.10;99.90
24860;DHT22;12936;52.006;4.350;2023-08-06T09:01:33;16.10;99.90
24860;DHT22;12936;52.006;4.350;2023-08-06T09:04:04;16.10;99.90
24860;DHT22;12936;52.006;4.350;2023-08-06T09:06:33;16.10;99.90
24860;DHT22;12936;52.006;4.350;2023-08-06T09:09:08;16.10;99.90
24860;DHT22;12936;52.006;4.350;2023-08-06T09:11:39;16.10;99.90
24860;DHT22;12936;52.006;4.350;2023-08-06T09:14:18;16.10;99.90
24860;DHT22;12936;52.006;4.350;2023-08-06T09:16:47;16.10;99.90
24860;DHT22;12936;52.006;4.350;2023-08-06T09:19:16;16.00;99.90
24860;DHT22;12936;52.006;4.350;2023-08-06T09:21:45;16.00;99.90
24860;DHT22;12936;52.006;4.350;2023-08-06T09:24:16;16.10;99.90
24860;DHT22;12936;52.006;4.350;2023-08-06T09:26:45;16.10;99.90
24860;DHT22;12936;52.006;4.350;2023-08-06T09:29:13;16.10;99.90
24860;DHT22;12936;52.006;4.350;2023-08-06T09:31:42;16.10;99.90
24860;DHT22;12936;52.006;4.350;2023-08-06T09:34:17;16.20;99.90
24860;DHT22;12936;52.006;4.350;2023-08-06T09:36:50;16.10;99.90
24860;DHT22;12936;52.006;4.350;2023-08-06T09:39:25;16.20;99.90
24860;DHT22;12936;52.006;4.350;2023-08-06T09:41:56;16.20;99.90
24860;DHT22;12936;52.006;4.350;2023-08-06T09:44:26;16.20;99.90
24860;DHT22;12936;52.006;4.350;2023-08-06T09:46:58;16.20;99.90
24860;DHT22;12936;52.006;4.350;2023-08-06T09:49:40;16.20;99.90
24860;DHT22;12936;52.006;4.350;2023-08-06T09:52:11;16.30;99.90
24860;DHT22;12936;52.006;4.350;2023-08-06T09:54:43;16.30;99.90
24860;DHT22;12936;52.006;4.350;2023-08-06T09:57:15;16.40;99.90
24860;DHT22;12936;52.006;4.350;2023-08-06T09:59:44;16.30;99.90
24860;DHT22;12936;52.006;4.350;2023-08-06T10:02:14;16.40;99.90
24860;DHT22;12936;52.006;4.350;2023-08-06T10:04:44;16.50;99.90
24860;DHT22;12936;52.006;4.350;2023-08-06T10:07:21;16.50;99.90
24860;DHT22;12936;52.006;4.350;2023-08-06T10:09:52;16.60;99.90
24860;DHT22;12936;52.006;4.350;2023-08-06T10:12:21;16.60;99.90
24860;DHT22;12936;52.006;4.350;2023-08-06T10:14:50;16.60;99.90
24860;DHT22;12936;52.006;4.350;2023-08-06T10:17:19;16.70;99.90
24860;DHT22;12936;52.006;4.350;2023-08-06T10:19:48;16.70;99.90
24860;DHT22;12936;52.006;4.350;2023-08-06T10:22:18;16.80;99.90
24860;DHT22;12936;52.006;4.350;2023-08-06T10:24:48;16.80;99.90
24860;DHT22;12936;52.006;4.350;2023-08-06T10:27:21;16.80;99.90
24860;DHT22;12936;52.006;4.350;2023-08-06T10:29:49;16.80;99.90
24860;DHT22;12936;52.006;4.350;2023-08-06T10:32:18;16.80;99.90
24860;DHT22;12936;52.006;4.350;2023-08-06T10:34:57;16.90;99.90
24860;DHT22;12936;52.006;4.350;2023-08-06T10:37:35;16.80;99.90
24860;DHT22;12936;52.006;4.350;2023-08-06T10:40:06;16.90;99.90
24860;DHT22;12936;52.006;4.350;2023-08-06T10:42:36;16.90;99.90
24860;DHT22;12936;52.006;4.350;2023-08-06T10:45:13;16.90;99.90
24860;DHT22;12936;52.006;4.350;2023-08-06T10:47:44;17.00;99.90
24860;DHT22;12936;52.006;4.350;2023-08-06T10:50:14;17.00;99.90
24860;DHT22;12936;52.006;4.350;2023-08-06T10:52:43;17.00;99.90
24860;DHT22;12936;52.006;4.350;2023-08-06T10:55:12;17.00;99.90
24860;DHT22;12936;52.006;4.350;2023-08-06T10:57:43;17.00;99.90
24860;DHT22;12936;52.006;4.350;2023-08-06T11:00:12;17.10;99.90
24860;DHT22;12936;52.006;4.350;2023-08-06T11:02:43;17.00;99.90
24860;DHT22;12936;52.006;4.350;2023-08-06T11:05:12;17.10;99.90
24860;DHT22;12936;52.006;4.350;2023-08-06T11:07:40;17.10;99.90
24860;DHT22;12936;52.006;4.350;2023-08-06T11:10:10;17.10;99.90
24860;DHT22;12936;52.006;4.350;2023-08-06T11:12:38;17.10;99.90
24860;DHT22;12936;52.006;4.350;2023-08-06T11:15:09;17.00;99.90
24860;DHT22;12936;52.006;4.350;2023-08-06T11:17:40;17.00;99.90
24860;DHT22;12936;52.006;4.350;2023-08-06T11:20:10;17.00;99.90
24860;DHT22;12936;52.006;4.350;2023-08-06T11:22:40;17.00;99.90
24860;DHT22;12936;52.006;4.350;2023-08-06T11:25:10;17.10;99.90
24860;DHT22;12936;52.006;4.350;2023-08-06T11:27:39;17.00;99.90
24860;DHT22;12936;52.006;4.350;2023-08-06T11:30:12;17.00;99.90
24860;DHT22;12936;52.006;4.350;2023-08-06T11:32:46;17.00;99.90
24860;DHT22;12936;52.006;4.350;2023-08-06T11:35:15;17.10;99.90
24860;DHT22;12936;52.006;4.350;2023-08-06T11:37:45;17.00;99.90
24860;DHT22;12936;52.006;4.350;2023-08-06T11:40:17;17.00;99.90
24860;DHT22;12936;52.006;4.350;2023-08-06T11:42:46;17.00;99.90
24860;DHT22;12936;52.006;4.350;2023-08-06T11:45:21;17.00;99.90
24860;DHT22;12936;52.006;4.350;2023-08-06T11:47:50;17.00;99.90
24860;DHT22;12936;52.006;4.350;2023-08-06T11:50:23;17.00;99.90
24860;DHT22;12936;52.006;4.350;2023-08-06T11:52:57;17.00;99.90
24860;DHT22;12936;52.006;4.350;2023-08-06T11:55:40;17.00;99.90
24860;DHT22;12936;52.006;4.350;2023-08-06T11:58:10;17.00;99.90
24860;DHT22;12936;52.006;4.350;2023-08-06T12:00:42;17.00;99.90
24860;DHT22;12936;52.006;4.350;2023-08-06T12:03:11;17.00;99.90
24860;DHT22;12936;52.006;4.350;2023-08-06T12:05:40;17.00;99.90
24860;DHT22;12936;52.006;4.350;2023-08-06T12:08:09;17.00;99.90
24860;DHT22;12936;52.006;4.350;2023-08-06T12:10:37;17.00;99.90
24860;DHT22;12936;52.006;4.350;2023-08-06T12:13:06;17.10;99.90
24860;DHT22;12936;52.006;4.350;2023-08-06T12:15:34;17.20;99.90
24860;DHT22;12936;52.006;4.350;2023-08-06T12:18:04;17.20;99.90
24860;DHT22;12936;52.006;4.350;2023-08-06T12:20:33;17.20;99.90
24860;DHT22;12936;52.006;4.350;2023-08-06T12:23:02;17.20;99.90
24860;DHT22;12936;52.006;4.350;2023-08-06T12:25:31;17.30;99.90
24860;DHT22;12936;52.006;4.350;2023-08-06T12:28:00;17.30;99.90
24860;DHT22;12936;52.006;4.350;2023-08-06T12:30:29;17.30;99.90
24860;DHT22;12936;52.006;4.350;2023-08-06T12:32:57;17.30;99.90
24860;DHT22;12936;52.006;4.350;2023-08-06T12:35:27;17.40;99.90
24860;DHT22;12936;52.006;4.350;2023-08-06T12:37:55;17.40;99.90
24860;DHT22;12936;52.006;4.350;2023-08-06T12:40:26;17.40;99.90
24860;DHT22;12936;52.006;4.350;2023-08-06T12:43:04;17.50;99.90
24860;DHT22;12936;52.006;4.350;2023-08-06T12:45:32;17.50;99.90
24860;DHT22;12936;52.006;4.350;2023-08-06T12:48:00;17.50;99.90
24860;DHT22;12936;52.006;4.350;2023-08-06T12:50:30;17.60;99.90
24860;DHT22;12936;52.006;4.350;2023-08-06T12:53:00;17.60;99.90
24860;DHT22;12936;52.006;4.350;2023-08-06T12:55:28;17.70;99.90
24860;DHT22;12936;52.006;4.350;2023-08-06T12:57:59;17.60;99.90
24860;DHT22;12936;52.006;4.350;2023-08-06T13:00:27;17.60;99.90
24860;DHT22;12936;52.006;4.350;2023-08-06T13:02:55;17.60;99.90
24860;DHT22;12936;52.006;4.350;2023-08-06T13:05:24;17.60;99.90
24860;DHT22;12936;52.006;4.350;2023-08-06T13:07:54;17.70;99.90
24860;DHT22;12936;52.006;4.350;2023-08-06T13:10:22;17.60;99.90
24860;DHT22;12936;52.006;4.350;2023-08-06T13:12:51;17.60;99.90
24860;DHT22;12936;52.006;4.350;2023-08-06T13:15:20;17.50;99.90
24860;DHT22;12936;52.006;4.350;2023-08-06T13:17:49;17.50;99.90
24860;DHT22;12936;52.006;4.350;2023-08-06T13:20:17;17.50;99.90
24860;DHT22;12936;52.006;4.350;2023-08-06T13:22:47;17.40;99.90
24860;DHT22;12936;52.006;4.350;2023-08-06T13:25:19;17.40;99.90
24860;DHT22;12936;52.006;4.350;2023-08-06T13:27:47;17.30;99.90
24860;DHT22;12936;52.006;4.350;2023-08-06T13:30:16;17.20;99.90
24860;DHT22;12936;52.006;4.350;2023-08-06T13:32:45;17.20;99.90
24860;DHT22;12936;52.006;4.350;2023-08-06T13:35:13;17.10;99.90
24860;DHT22;12936;52.006;4.350;2023-08-06T13:37:41;17.10;99.90
24860;DHT22;12936;52.006;4.350;2023-08-06T13:40:10;17.00;99.90
24860;DHT22;12936;52.006;4.350;2023-08-06T13:42:39;16.90;99.90
24860;DHT22;12936;52.006;4.350;2023-08-06T13:45:08;16.90;99.90
24860;DHT22;12936;52.006;4.350;2023-08-06T13:47:37;16.80;99.90
24860;DHT22;12936;52.006;4.350;2023-08-06T13:50:06;16.80;99.90
24860;DHT22;12936;52.006;4.350;2023-08-06T13:52:34;16.80;99.90
24860;DHT22;12936;52.006;4.350;2023-08-06T13:55:04;16.70;99.90
24860;DHT22;12936;52.006;4.350;2023-08-06T13:57:35;16.70;99.90
24860;DHT22;12936;52.006;4.350;2023-08-06T14:00:06;16.60;99.90
24860;DHT22;12936;52.006;4.350;2023-08-06T14:02:34;16.60;99.90
24860;DHT22;12936;52.006;4.350;2023-08-06T14:05:03;16.50;99.90
24860;DHT22;12936;52.006;4.350;2023-08-06T14:07:32;16.40;99.90
24860;DHT22;12936;52.006;4.350;2023-08-06T14:10:02;16.40;99.90
24860;DHT22;12936;52.006;4.350;2023-08-06T14:12:31;16.30;99.90
24860;DHT22;12936;52.006;4.350;2023-08-06T14:15:00;16.20;99.90
24860;DHT22;12936;52.006;4.350;2023-08-06T14:17:31;16.30;99.90
24860;DHT22;12936;52.006;4.350;2023-08-06T14:19:59;16.20;99.90
24860;DHT22;12936;52.006;4.350;2023-08-06T14:22:30;16.20;99.90
24860;DHT22;12936;52.006;4.350;2023-08-06T14:24:58;16.20;99.90
24860;DHT22;12936;52.006;4.350;2023-08-06T14:27:28;16.20;99.90
24860;DHT22;12936;52.006;4.350;2023-08-06T14:29:57;16.20;99.90
24860;DHT22;12936;52.006;4.350;2023-08-06T14:32:27;16.10;99.90
24860;DHT22;12936;52.006;4.350;2023-08-06T14:34:57;16.10;99.90
24860;DHT22;12936;52.006;4.350;2023-08-06T14:37:25;16.10;99.90
24860;DHT22;12936;52.006;4.350;2023-08-06T14:39:54;16.10;99.90
24860;DHT22;12936;52.006;4.350;2023-08-06T14:42:23;16.00;99.90
24860;DHT22;12936;52.006;4.350;2023-08-06T14:44:51;16.10;99.90
24860;DHT22;12936;52.006;4.350;2023-08-06T14:47:19;16.10;99.90
24860;DHT22;12936;52.006;4.350;2023-08-06T14:49:48;16.10;99.90
24860;DHT22;12936;52.006;4.350;2023-08-06T14:52:18;16.10;99.90
24860;DHT22;12936;52.006;4.350;2023-08-06T14:54:46;16.10;99.90
24860;DHT22;12936;52.006;4.350;2023-08-06T14:57:15;16.10;99.90
24860;DHT22;12936;52.006;4.350;2023-08-06T14:59:43;16.10;99.90
24860;DHT22;12936;52.006;4.350;2023-08-06T15:02:11;16.10;99.90
24860;DHT22;12936;52.006;4.350;2023-08-06T15:04:39;16.10;99.90
24860;DHT22;12936;52.006;4.350;2023-08-06T15:07:08;16.00;99.90
24860;DHT22;12936;52.006;4.350;2023-08-06T15:09:38;16.00;99.90
24860;DHT22;12936;52.006;4.350;2023-08-06T15:12:26;16.00;99.90
24860;DHT22;12936;52.006;4.350;2023-08-06T15:14:55;16.00;99.90
24860;DHT22;12936;52.006;4.350;2023-08-06T15:17:24;16.00;99.90
24860;DHT22;12936;52.006;4.350;2023-08-06T15:19:55;16.00;99.90
24860;DHT22;12936;52.006;4.350;2023-08-06T15:22:25;16.00;99.90
24860;DHT22;12936;52.006;4.350;2023-08-06T15:24:54;16.00;99.90
24860;DHT22;12936;52.006;4.350;2023-08-06T15:27:23;16.00;99.90
24860;DHT22;12936;52.006;4.350;2023-08-06T15:29:51;16.00;99.90
24860;DHT22;12936;52.006;4.350;2023-08-06T15:32:19;16.00;99.90
24860;DHT22;12936;52.006;4.350;2023-08-06T15:34:48;16.00;99.90
24860;DHT22;12936;52.006;4.350;2023-08-06T15:37:17;16.00;99.90
24860;DHT22;12936;52.006;4.350;2023-08-06T15:39:45;16.00;99.90
24860;DHT22;12936;52.006;4.350;2023-08-06T15:42:15;15.90;99.90
24860;DHT22;12936;52.006;4.350;2023-08-06T15:44:43;16.00;99.90
24860;DHT22;12936;52.006;4.350;2023-08-06T15:47:12;16.00;99.90
24860;DHT22;12936;52.006;4.350;2023-08-06T15:49:42;16.00;99.90
24860;DHT22;12936;52.006;4.350;2023-08-06T15:52:10;16.00;99.90